Airfield :
LOGIN :

Register | Disclaimer

   EN    FR    IT 

 










Legend :    VFR   Marginal VFR   IFR   Intensive IFR   Very Intensive IFR
Visi :
Ceiling :
>= 8 km
>= 3000ft
5 to 8 km
1000 to 3000 ft
1500m to 5 km
500 to 1000 ft
800 to 1500m
200 to 500 ft
< 800m
< 200 ft
Symbols :   Thunderstorms  Fog  Heavy snow  Heavy precipitations  Wind > 20 kt
SIGMETs :     Misc.  Thunderstorms  Icing  Turbulence  Mountain Waves  Volcanic Ashes







- Airport Elevation : 72 ft
- IATA code : UDE


EHVK - Volkel Airbase

CURRENT METAR :
  • 181509Z AUTO 17005KT 130V200 1300 BR OVC001 M01/M01 Q1020 RED

EXPIRED METARs :
  • 181455Z AUTO 16004KT 130V190 1800 BR BKN000 OVC002 M01/M01 Q1020 RED
  • 181425Z AUTO 19005KT 140V200 0200 R24R/P3000U FZFG OVC001 M01/M01 Q1020 RED 18005KT 0300 FZFG SCT001 BKN002 OVC005 TEMPO 1000 BR BKN003 OVC005
  • 181406Z AUTO 17006KT 0200 R24R/P3000N FZFG BKN000 OVC002 M01/M01 Q1020 RED 18005KT 0300 FZFG SCT001 BKN002 OVC005 TEMPO 1000 BR BKN003 OVC005
  • 181355Z AUTO 18005KT 0350 R24R/P3000N FZFG SCT001 BKN002 BKN003 M01/M01 Q1020 RED 18005KT 0300 FZFG SCT001 BKN002 OVC005 TEMPO 1000 BR BKN003 OVC005
  • 181350Z AUTO 18006KT 1000 R24R/P3000N BR FEW001 OVC140 M00/M01 Q1020 AMB 21005KT CAVOK BECMG BKN003 OVC005 1000 BR
  • 181339Z AUTO 16005KT 3100 R24R/P3000N BR OVC140 00/M01 Q1020 YLO 21005KT CAVOK BECMG BKN003 OVC005 1000 BR
  • 181325Z AUTO 16006KT 5000 BR OVC160 01/M01 Q1020 WHT 21005KT CAVOK BECMG BKN003 OVC005 1000 BR
  • 181310Z AUTO 18004KT 7000 BR OVC170 02/M00 Q1020 WHT 21005KT CAVOK BECMG BKN003 OVC005 1000 BR
  • 181302Z AUTO 19005KT 140V200 7000 BR OVC150 02/00 Q1020 WHT 21005KT CAVOK BECMG BKN003 OVC005 1000 BR
  • 181255Z AUTO 17005KT 9999 OVC150 03/01 Q1020 BLU 21005KT CAVOK BECMG BKN003 OVC005 1000 BR
  • 181233Z AUTO 21006KT 150V220 9999 FEW170 03/00 Q1020 BLU 21005KT CAVOK BECMG BKN003 OVC005 1000 BR
  • 181225Z AUTO 20006KT 150V230 9999 OVC170 03/00 Q1020 BLU 23003KT 5000 BR NSC BECMG 9999 NSW

TAF TAF EHVK
Valid from the 18 at 14:00 until the 19 at 02:00 UTC


181341Z 1814/1902 17005KT 0500 FZFG BKN001
TEMPO 1814/1818 1000 BR BKN002
BECMG 1817/1819 6000 BR
No reported NOTAMs for that airfield.



MET'MAP, your aeronautical weather chart ! - Copyright ORBIFLY December 2007 - Disclaimer

ORBIFLY MET'MAP TEAM :

Programming & Development : Alexandra Zaïnal
Concept & Development : Baudouin d'Aumeries
Co-Development & Prog : Marc-Olivier Méhu
Technical & hardware support : Manuel Goepfert

Contact : metmap@orbifly.com




SOURCES & CREDITS :

   NOAA